sensor_id;sensor_type;location;lat;lon;timestamp;temperature;humidity
6206;DHT22;3136;48.788;9.772;2023-11-19T00:01:28;7.10;1.00
6206;DHT22;3136;48.788;9.772;2023-11-19T00:03:53;7.10;1.90
6206;DHT22;3136;48.788;9.772;2023-11-19T00:06:19;7.10;3.10
6206;DHT22;3136;48.788;9.772;2023-11-19T00:08:44;7.10;4.40
6206;DHT22;3136;48.788;9.772;2023-11-19T00:11:10;7.20;5.30
6206;DHT22;3136;48.788;9.772;2023-11-19T00:13:36;7.20;6.10
6206;DHT22;3136;48.788;9.772;2023-11-19T00:16:02;7.20;6.90
6206;DHT22;3136;48.788;9.772;2023-11-19T00:18:29;7.20;8.00
6206;DHT22;3136;48.788;9.772;2023-11-19T00:20:55;7.20;8.90
6206;DHT22;3136;48.788;9.772;2023-11-19T00:23:20;7.20;9.10
6206;DHT22;3136;48.788;9.772;2023-11-19T00:25:46;7.20;9.40
6206;DHT22;3136;48.788;9.772;2023-11-19T00:28:13;7.20;10.10
6206;DHT22;3136;48.788;9.772;2023-11-19T00:30:38;7.20;11.20
6206;DHT22;3136;48.788;9.772;2023-11-19T00:33:06;7.30;12.50
6206;DHT22;3136;48.788;9.772;2023-11-19T00:35:31;7.30;13.60
6206;DHT22;3136;48.788;9.772;2023-11-19T00:37:57;7.30;14.40
6206;DHT22;3136;48.788;9.772;2023-11-19T00:40:23;7.40;15.00
6206;DHT22;3136;48.788;9.772;2023-11-19T00:42:49;7.40;15.60
6206;DHT22;3136;48.788;9.772;2023-11-19T00:45:15;7.40;16.10
6206;DHT22;3136;48.788;9.772;2023-11-19T00:47:40;7.40;16.30
6206;DHT22;3136;48.788;9.772;2023-11-19T00:50:07;7.40;16.90
6206;DHT22;3136;48.788;9.772;2023-11-19T00:52:35;7.50;17.70
6206;DHT22;3136;48.788;9.772;2023-11-19T00:55:01;7.50;18.60
6206;DHT22;3136;48.788;9.772;2023-11-19T00:57:26;7.50;19.40
6206;DHT22;3136;48.788;9.772;2023-11-19T00:59:52;7.50;20.20
6206;DHT22;3136;48.788;9.772;2023-11-19T01:02:18;7.60;21.30
6206;DHT22;3136;48.788;9.772;2023-11-19T01:04:43;7.70;22.20
6206;DHT22;3136;48.788;9.772;2023-11-19T01:07:09;7.70;23.10
6206;DHT22;3136;48.788;9.772;2023-11-19T01:09:38;7.80;24.20
6206;DHT22;3136;48.788;9.772;2023-11-19T01:12:04;7.80;24.70
6206;DHT22;3136;48.788;9.772;2023-11-19T01:14:30;7.80;25.30
6206;DHT22;3136;48.788;9.772;2023-11-19T01:16:56;7.80;25.70
6206;DHT22;3136;48.788;9.772;2023-11-19T01:19:22;7.80;25.90
6206;DHT22;3136;48.788;9.772;2023-11-19T01:21:49;7.80;26.10
6206;DHT22;3136;48.788;9.772;2023-11-19T01:24:14;7.90;26.40
6206;DHT22;3136;48.788;9.772;2023-11-19T01:26:41;7.90;27.00
6206;DHT22;3136;48.788;9.772;2023-11-19T01:29:16;7.90;27.20
6206;DHT22;3136;48.788;9.772;2023-11-19T01:31:42;7.90;27.70
6206;DHT22;3136;48.788;9.772;2023-11-19T01:34:08;7.90;28.00
6206;DHT22;3136;48.788;9.772;2023-11-19T01:36:34;7.90;28.60
6206;DHT22;3136;48.788;9.772;2023-11-19T01:39:00;8.00;29.30
6206;DHT22;3136;48.788;9.772;2023-11-19T01:41:25;8.00;29.80
6206;DHT22;3136;48.788;9.772;2023-11-19T01:43:51;8.00;30.20
6206;DHT22;3136;48.788;9.772;2023-11-19T01:46:17;8.00;30.60
6206;DHT22;3136;48.788;9.772;2023-11-19T01:48:45;8.00;30.90
6206;DHT22;3136;48.788;9.772;2023-11-19T01:51:14;8.00;31.20
6206;DHT22;3136;48.788;9.772;2023-11-19T01:53:43;8.00;31.40
6206;DHT22;3136;48.788;9.772;2023-11-19T01:56:09;8.00;31.70
6206;DHT22;3136;48.788;9.772;2023-11-19T01:58:36;8.10;32.30
6206;DHT22;3136;48.788;9.772;2023-11-19T02:01:02;8.10;32.90
6206;DHT22;3136;48.788;9.772;2023-11-19T02:03:31;8.10;33.40
6206;DHT22;3136;48.788;9.772;2023-11-19T02:05:58;8.10;33.80
6206;DHT22;3136;48.788;9.772;2023-11-19T02:08:24;8.10;34.10
6206;DHT22;3136;48.788;9.772;2023-11-19T02:10:50;8.10;34.70
6206;DHT22;3136;48.788;9.772;2023-11-19T02:13:16;8.20;35.60
6206;DHT22;3136;48.788;9.772;2023-11-19T02:15:42;8.20;36.20
6206;DHT22;3136;48.788;9.772;2023-11-19T02:18:24;8.20;36.40
6206;DHT22;3136;48.788;9.772;2023-11-19T02:20:53;8.20;36.90
6206;DHT22;3136;48.788;9.772;2023-11-19T02:23:20;8.20;37.00
6206;DHT22;3136;48.788;9.772;2023-11-19T02:28:39;8.20;37.10
6206;DHT22;3136;48.788;9.772;2023-11-19T02:31:05;8.20;37.30
6206;DHT22;3136;48.788;9.772;2023-11-19T02:33:38;8.20;37.60
6206;DHT22;3136;48.788;9.772;2023-11-19T02:36:05;8.30;38.00
6206;DHT22;3136;48.788;9.772;2023-11-19T02:38:32;8.30;37.80
6206;DHT22;3136;48.788;9.772;2023-11-19T02:40:58;8.30;37.30
6206;DHT22;3136;48.788;9.772;2023-11-19T02:43:24;8.30;37.20
6206;DHT22;3136;48.788;9.772;2023-11-19T02:45:50;8.30;37.90
6206;DHT22;3136;48.788;9.772;2023-11-19T02:48:16;8.30;38.40
6206;DHT22;3136;48.788;9.772;2023-11-19T02:50:44;8.30;39.00
6206;DHT22;3136;48.788;9.772;2023-11-19T02:53:10;8.30;39.70
6206;DHT22;3136;48.788;9.772;2023-11-19T02:55:35;8.30;40.50
6206;DHT22;3136;48.788;9.772;2023-11-19T02:58:04;8.40;41.10
6206;DHT22;3136;48.788;9.772;2023-11-19T03:00:45;8.30;41.40
6206;DHT22;3136;48.788;9.772;2023-11-19T03:03:19;8.40;41.80
6206;DHT22;3136;48.788;9.772;2023-11-19T03:05:47;8.40;42.40
6206;DHT22;3136;48.788;9.772;2023-11-19T03:08:15;8.40;42.80
6206;DHT22;3136;48.788;9.772;2023-11-19T03:10:41;8.40;43.10
6206;DHT22;3136;48.788;9.772;2023-11-19T03:13:11;8.40;43.50
6206;DHT22;3136;48.788;9.772;2023-11-19T03:15:38;8.40;43.90
6206;DHT22;3136;48.788;9.772;2023-11-19T03:18:04;8.40;44.30
6206;DHT22;3136;48.788;9.772;2023-11-19T03:20:29;8.50;44.40
6206;DHT22;3136;48.788;9.772;2023-11-19T03:22:55;8.40;44.90
6206;DHT22;3136;48.788;9.772;2023-11-19T03:25:25;8.40;44.50
6206;DHT22;3136;48.788;9.772;2023-11-19T03:27:52;8.40;44.80
6206;DHT22;3136;48.788;9.772;2023-11-19T03:30:18;8.50;45.50
6206;DHT22;3136;48.788;9.772;2023-11-19T03:32:46;8.50;46.10
6206;DHT22;3136;48.788;9.772;2023-11-19T03:35:11;8.50;46.60
6206;DHT22;3136;48.788;9.772;2023-11-19T03:37:37;8.50;46.70
6206;DHT22;3136;48.788;9.772;2023-11-19T03:40:03;8.50;46.90
6206;DHT22;3136;48.788;9.772;2023-11-19T03:42:29;8.50;47.00
6206;DHT22;3136;48.788;9.772;2023-11-19T03:44:56;8.50;47.20
6206;DHT22;3136;48.788;9.772;2023-11-19T03:47:22;8.50;47.50
6206;DHT22;3136;48.788;9.772;2023-11-19T03:49:50;8.50;47.80
6206;DHT22;3136;48.788;9.772;2023-11-19T03:52:17;8.60;48.30
6206;DHT22;3136;48.788;9.772;2023-11-19T03:54:43;8.60;48.80
6206;DHT22;3136;48.788;9.772;2023-11-19T03:57:09;8.60;49.20
6206;DHT22;3136;48.788;9.772;2023-11-19T03:59:36;8.60;49.40
6206;DHT22;3136;48.788;9.772;2023-11-19T04:02:02;8.70;50.20
6206;DHT22;3136;48.788;9.772;2023-11-19T04:04:28;8.70;51.10
6206;DHT22;3136;48.788;9.772;2023-11-19T04:06:55;8.80;52.50
6206;DHT22;3136;48.788;9.772;2023-11-19T04:09:21;8.80;52.80
6206;DHT22;3136;48.788;9.772;2023-11-19T04:11:46;8.80;53.30
6206;DHT22;3136;48.788;9.772;2023-11-19T04:14:13;8.90;54.60
6206;DHT22;3136;48.788;9.772;2023-11-19T04:16:39;9.00;56.30
6206;DHT22;3136;48.788;9.772;2023-11-19T04:19:04;9.10;56.90
6206;DHT22;3136;48.788;9.772;2023-11-19T04:21:30;9.10;57.50
6206;DHT22;3136;48.788;9.772;2023-11-19T04:23:56;9.10;58.00
6206;DHT22;3136;48.788;9.772;2023-11-19T04:26:21;9.20;58.40
6206;DHT22;3136;48.788;9.772;2023-11-19T04:28:47;9.30;58.90
6206;DHT22;3136;48.788;9.772;2023-11-19T04:31:17;9.30;59.00
6206;DHT22;3136;48.788;9.772;2023-11-19T04:33:43;9.20;59.00
6206;DHT22;3136;48.788;9.772;2023-11-19T04:36:12;9.30;59.30
6206;DHT22;3136;48.788;9.772;2023-11-19T04:38:39;9.30;59.60
6206;DHT22;3136;48.788;9.772;2023-11-19T04:41:05;9.40;60.50
6206;DHT22;3136;48.788;9.772;2023-11-19T04:43:32;9.40;61.40
6206;DHT22;3136;48.788;9.772;2023-11-19T04:45:57;9.50;62.00
6206;DHT22;3136;48.788;9.772;2023-11-19T04:48:23;9.50;62.40
6206;DHT22;3136;48.788;9.772;2023-11-19T04:50:49;9.50;62.90
6206;DHT22;3136;48.788;9.772;2023-11-19T04:53:16;9.50;63.20
6206;DHT22;3136;48.788;9.772;2023-11-19T04:55:42;9.50;63.20
6206;DHT22;3136;48.788;9.772;2023-11-19T04:58:08;9.50;63.30
6206;DHT22;3136;48.788;9.772;2023-11-19T05:00:33;9.60;64.20
6206;DHT22;3136;48.788;9.772;2023-11-19T05:02:59;9.70;65.60
6206;DHT22;3136;48.788;9.772;2023-11-19T05:05:24;9.80;66.80
6206;DHT22;3136;48.788;9.772;2023-11-19T05:07:50;9.80;67.30
6206;DHT22;3136;48.788;9.772;2023-11-19T05:10:15;9.80;67.30
6206;DHT22;3136;48.788;9.772;2023-11-19T05:12:41;9.80;67.40
6206;DHT22;3136;48.788;9.772;2023-11-19T05:15:07;9.90;67.90
6206;DHT22;3136;48.788;9.772;2023-11-19T05:17:33;9.90;68.30
6206;DHT22;3136;48.788;9.772;2023-11-19T05:19:59;9.90;68.60
6206;DHT22;3136;48.788;9.772;2023-11-19T05:22:24;9.90;68.90
6206;DHT22;3136;48.788;9.772;2023-11-19T05:24:51;10.00;68.20
6206;DHT22;3136;48.788;9.772;2023-11-19T05:27:17;10.00;68.20
6206;DHT22;3136;48.788;9.772;2023-11-19T05:29:42;10.00;68.60
6206;DHT22;3136;48.788;9.772;2023-11-19T05:32:09;10.00;68.60
6206;DHT22;3136;48.788;9.772;2023-11-19T05:34:35;10.10;68.60
6206;DHT22;3136;48.788;9.772;2023-11-19T05:37:00;10.30;69.40
6206;DHT22;3136;48.788;9.772;2023-11-19T05:39:27;10.20;70.10
6206;DHT22;3136;48.788;9.772;2023-11-19T05:41:52;10.30;70.60
6206;DHT22;3136;48.788;9.772;2023-11-19T05:44:18;10.30;71.00
6206;DHT22;3136;48.788;9.772;2023-11-19T05:46:44;10.30;71.10
6206;DHT22;3136;48.788;9.772;2023-11-19T05:49:11;10.40;71.80
6206;DHT22;3136;48.788;9.772;2023-11-19T05:51:39;10.30;72.10
6206;DHT22;3136;48.788;9.772;2023-11-19T05:54:09;9.40;72.40
6206;DHT22;3136;48.788;9.772;2023-11-19T05:56:35;10.40;72.30
6206;DHT22;3136;48.788;9.772;2023-11-19T05:59:01;10.30;72.20
6206;DHT22;3136;48.788;9.772;2023-11-19T06:01:29;10.40;72.30
6206;DHT22;3136;48.788;9.772;2023-11-19T06:03:55;12.10;74.10
6206;DHT22;3136;48.788;9.772;2023-11-19T06:06:20;10.40;72.40
6206;DHT22;3136;48.788;9.772;2023-11-19T06:08:46;10.40;72.30
6206;DHT22;3136;48.788;9.772;2023-11-19T06:11:12;10.40;72.40
6206;DHT22;3136;48.788;9.772;2023-11-19T06:13:44;10.40;72.60
6206;DHT22;3136;48.788;9.772;2023-11-19T06:16:10;10.40;72.80
6206;DHT22;3136;48.788;9.772;2023-11-19T06:18:36;10.50;73.30
6206;DHT22;3136;48.788;9.772;2023-11-19T06:21:02;10.60;74.00
6206;DHT22;3136;48.788;9.772;2023-11-19T06:23:28;10.60;74.10
6206;DHT22;3136;48.788;9.772;2023-11-19T06:25:53;10.60;73.70
6206;DHT22;3136;48.788;9.772;2023-11-19T06:28:19;10.60;73.30
6206;DHT22;3136;48.788;9.772;2023-11-19T06:30:44;10.60;73.80
6206;DHT22;3136;48.788;9.772;2023-11-19T06:33:13;10.70;74.00
6206;DHT22;3136;48.788;9.772;2023-11-19T06:35:38;10.70;74.00
6206;DHT22;3136;48.788;9.772;2023-11-19T06:38:04;10.70;73.80
6206;DHT22;3136;48.788;9.772;2023-11-19T06:40:30;10.80;74.40
6206;DHT22;3136;48.788;9.772;2023-11-19T06:42:56;10.80;74.30
6206;DHT22;3136;48.788;9.772;2023-11-19T06:45:22;10.90;74.40
6206;DHT22;3136;48.788;9.772;2023-11-19T06:47:54;10.90;74.20
6206;DHT22;3136;48.788;9.772;2023-11-19T06:50:20;11.00;73.60
6206;DHT22;3136;48.788;9.772;2023-11-19T06:52:46;11.00;73.00
6206;DHT22;3136;48.788;9.772;2023-11-19T06:55:12;11.00;72.00
6206;DHT22;3136;48.788;9.772;2023-11-19T06:57:37;11.00;70.80
6206;DHT22;3136;48.788;9.772;2023-11-19T07:00:04;11.00;70.10
6206;DHT22;3136;48.788;9.772;2023-11-19T07:02:31;11.00;69.30
6206;DHT22;3136;48.788;9.772;2023-11-19T07:04:57;11.10;69.30
6206;DHT22;3136;48.788;9.772;2023-11-19T07:07:22;11.10;68.30
6206;DHT22;3136;48.788;9.772;2023-11-19T07:09:48;11.20;67.60
6206;DHT22;3136;48.788;9.772;2023-11-19T07:12:14;11.20;65.60
6206;DHT22;3136;48.788;9.772;2023-11-19T07:14:40;11.20;63.20
6206;DHT22;3136;48.788;9.772;2023-11-19T07:17:07;11.20;62.00
6206;DHT22;3136;48.788;9.772;2023-11-19T07:19:34;11.30;60.10
6206;DHT22;3136;48.788;9.772;2023-11-19T07:22:00;11.40;58.00
6206;DHT22;3136;48.788;9.772;2023-11-19T07:24:26;11.40;54.90
6206;DHT22;3136;48.788;9.772;2023-11-19T07:26:53;11.40;51.60
6206;DHT22;3136;48.788;9.772;2023-11-19T07:29:19;11.40;49.50
6206;DHT22;3136;48.788;9.772;2023-11-19T07:31:45;11.50;47.70
6206;DHT22;3136;48.788;9.772;2023-11-19T07:34:11;11.50;45.90
6206;DHT22;3136;48.788;9.772;2023-11-19T07:36:37;11.60;44.70
6206;DHT22;3136;48.788;9.772;2023-11-19T07:39:03;11.50;42.30
6206;DHT22;3136;48.788;9.772;2023-11-19T07:41:30;11.50;41.10
6206;DHT22;3136;48.788;9.772;2023-11-19T07:43:56;11.60;41.80
6206;DHT22;3136;48.788;9.772;2023-11-19T07:46:22;11.60;40.80
6206;DHT22;3136;48.788;9.772;2023-11-19T07:48:47;11.50;40.00
6206;DHT22;3136;48.788;9.772;2023-11-19T07:51:14;11.60;39.60
6206;DHT22;3136;48.788;9.772;2023-11-19T07:53:40;11.60;38.20
6206;DHT22;3136;48.788;9.772;2023-11-19T07:56:07;11.60;37.60
6206;DHT22;3136;48.788;9.772;2023-11-19T07:58:33;11.60;35.70
6206;DHT22;3136;48.788;9.772;2023-11-19T08:00:58;11.70;34.50
6206;DHT22;3136;48.788;9.772;2023-11-19T08:03:24;11.70;30.00
6206;DHT22;3136;48.788;9.772;2023-11-19T08:05:49;11.90;26.80
6206;DHT22;3136;48.788;9.772;2023-11-19T08:08:15;11.70;24.30
6206;DHT22;3136;48.788;9.772;2023-11-19T08:10:40;11.70;22.70
6206;DHT22;3136;48.788;9.772;2023-11-19T08:13:06;11.70;20.60
6206;DHT22;3136;48.788;9.772;2023-11-19T08:15:32;11.70;20.30
6206;DHT22;3136;48.788;9.772;2023-11-19T08:17:58;11.70;21.30
6206;DHT22;3136;48.788;9.772;2023-11-19T08:20:24;11.80;23.30
6206;DHT22;3136;48.788;9.772;2023-11-19T08:22:49;11.70;24.90
6206;DHT22;3136;48.788;9.772;2023-11-19T08:25:15;11.80;23.80
6206;DHT22;3136;48.788;9.772;2023-11-19T08:27:41;11.80;21.30
6206;DHT22;3136;48.788;9.772;2023-11-19T08:30:07;11.90;20.50
6206;DHT22;3136;48.788;9.772;2023-11-19T08:32:33;11.90;18.80
6206;DHT22;3136;48.788;9.772;2023-11-19T08:34:59;11.90;17.80
6206;DHT22;3136;48.788;9.772;2023-11-19T08:37:25;12.00;18.40
6206;DHT22;3136;48.788;9.772;2023-11-19T08:39:51;12.10;17.80
6206;DHT22;3136;48.788;9.772;2023-11-19T08:42:16;12.10;17.60
6206;DHT22;3136;48.788;9.772;2023-11-19T08:44:43;12.20;12.70
6206;DHT22;3136;48.788;9.772;2023-11-19T08:47:09;12.20;13.70
6206;DHT22;3136;48.788;9.772;2023-11-19T08:49:35;12.30;12.30
6206;DHT22;3136;48.788;9.772;2023-11-19T08:52:01;12.30;9.50
6206;DHT22;3136;48.788;9.772;2023-11-19T08:54:27;12.40;7.50
6206;DHT22;3136;48.788;9.772;2023-11-19T08:56:52;12.50;13.00
6206;DHT22;3136;48.788;9.772;2023-11-19T08:59:18;12.70;19.70
6206;DHT22;3136;48.788;9.772;2023-11-19T09:01:44;12.80;3.60
6206;DHT22;3136;48.788;9.772;2023-11-19T09:04:10;12.80;1.00
6206;DHT22;3136;48.788;9.772;2023-11-19T09:06:36;12.90;1.00
6206;DHT22;3136;48.788;9.772;2023-11-19T09:09:02;12.80;1.00
6206;DHT22;3136;48.788;9.772;2023-11-19T09:11:31;12.80;1.00
6206;DHT22;3136;48.788;9.772;2023-11-19T09:13:57;12.80;1.00
6206;DHT22;3136;48.788;9.772;2023-11-19T09:16:23;12.80;1.00
6206;DHT22;3136;48.788;9.772;2023-11-19T09:18:49;12.80;1.00
6206;DHT22;3136;48.788;9.772;2023-11-19T09:21:15;12.70;1.00
6206;DHT22;3136;48.788;9.772;2023-11-19T09:23:40;12.70;1.00
6206;DHT22;3136;48.788;9.772;2023-11-19T09:26:08;12.70;1.00
6206;DHT22;3136;48.788;9.772;2023-11-19T09:28:33;12.70;1.00
6206;DHT22;3136;48.788;9.772;2023-11-19T09:30:59;12.70;1.00
6206;DHT22;3136;48.788;9.772;2023-11-19T09:33:25;12.70;1.00
6206;DHT22;3136;48.788;9.772;2023-11-19T09:35:51;12.70;1.00
6206;DHT22;3136;48.788;9.772;2023-11-19T09:38:17;12.90;1.00
6206;DHT22;3136;48.788;9.772;2023-11-19T09:40:43;13.20;1.00
6206;DHT22;3136;48.788;9.772;2023-11-19T09:43:09;13.50;1.00
6206;DHT22;3136;48.788;9.772;2023-11-19T09:45:48;13.60;1.00
6206;DHT22;3136;48.788;9.772;2023-11-19T09:48:18;13.60;1.00
6206;DHT22;3136;48.788;9.772;2023-11-19T09:50:47;13.50;1.00
6206;DHT22;3136;48.788;9.772;2023-11-19T09:53:14;13.40;1.00
6206;DHT22;3136;48.788;9.772;2023-11-19T09:55:41;13.30;1.00
6206;DHT22;3136;48.788;9.772;2023-11-19T09:58:07;13.20;1.00
6206;DHT22;3136;48.788;9.772;2023-11-19T10:00:34;13.40;1.00
6206;DHT22;3136;48.788;9.772;2023-11-19T10:03:00;13.10;1.00
6206;DHT22;3136;48.788;9.772;2023-11-19T10:05:26;13.00;1.00
6206;DHT22;3136;48.788;9.772;2023-11-19T10:07:52;13.00;1.00
6206;DHT22;3136;48.788;9.772;2023-11-19T10:10:18;12.90;1.00
6206;DHT22;3136;48.788;9.772;2023-11-19T10:12:50;12.90;1.00
6206;DHT22;3136;48.788;9.772;2023-11-19T10:15:25;12.90;1.00
6206;DHT22;3136;48.788;9.772;2023-11-19T10:17:55;12.90;1.00
6206;DHT22;3136;48.788;9.772;2023-11-19T10:20:20;13.10;1.00
6206;DHT22;3136;48.788;9.772;2023-11-19T10:22:46;13.60;1.00
6206;DHT22;3136;48.788;9.772;2023-11-19T10:25:25;13.80;1.00
6206;DHT22;3136;48.788;9.772;2023-11-19T10:27:52;14.10;1.00
6206;DHT22;3136;48.788;9.772;2023-11-19T10:30:27;14.40;1.00
6206;DHT22;3136;48.788;9.772;2023-11-19T10:35:31;14.20;1.00
6206;DHT22;3136;48.788;9.772;2023-11-19T10:37:59;14.80;1.00
6206;DHT22;3136;48.788;9.772;2023-11-19T10:40:37;14.30;1.00
6206;DHT22;3136;48.788;9.772;2023-11-19T10:43:03;14.60;99.90
6206;DHT22;3136;48.788;9.772;2023-11-19T10:45:31;14.70;99.90
6206;DHT22;3136;48.788;9.772;2023-11-19T10:47:59;14.60;1.00
6206;DHT22;3136;48.788;9.772;2023-11-19T10:50:26;14.60;99.90
6206;DHT22;3136;48.788;9.772;2023-11-19T10:52:56;14.70;1.00
6206;DHT22;3136;48.788;9.772;2023-11-19T10:55:27;14.70;99.90
6206;DHT22;3136;48.788;9.772;2023-11-19T10:58:00;14.60;1.00
6206;DHT22;3136;48.788;9.772;2023-11-19T11:00:28;14.50;57.60
6206;DHT22;3136;48.788;9.772;2023-11-19T11:02:59;14.30;99.90
6206;DHT22;3136;48.788;9.772;2023-11-19T11:05:26;14.10;83.50
6206;DHT22;3136;48.788;9.772;2023-11-19T11:07:52;14.10;89.00
6206;DHT22;3136;48.788;9.772;2023-11-19T11:10:21;14.10;1.00
6206;DHT22;3136;48.788;9.772;2023-11-19T11:12:48;14.40;1.00
6206;DHT22;3136;48.788;9.772;2023-11-19T11:15:16;14.70;1.00
6206;DHT22;3136;48.788;9.772;2023-11-19T11:17:45;15.20;99.90
6206;DHT22;3136;48.788;9.772;2023-11-19T11:20:11;15.50;1.00
6206;DHT22;3136;48.788;9.772;2023-11-19T11:29:14;15.90;1.00
6206;DHT22;3136;48.788;9.772;2023-11-19T11:35:19;16.30;99.90
6206;DHT22;3136;48.788;9.772;2023-11-19T11:37:34;16.50;99.90
6206;DHT22;3136;48.788;9.772;2023-11-19T11:40:02;16.60;99.90
6206;DHT22;3136;48.788;9.772;2023-11-19T11:42:36;16.70;99.90
6206;DHT22;3136;48.788;9.772;2023-11-19T11:45:08;16.70;99.90
6206;DHT22;3136;48.788;9.772;2023-11-19T11:58:27;16.60;99.90
6206;DHT22;3136;48.788;9.772;2023-11-19T12:00:52;17.10;4.90
6206;DHT22;3136;48.788;9.772;2023-11-19T12:03:23;17.30;99.90
6206;DHT22;3136;48.788;9.772;2023-11-19T12:05:49;17.10;99.90
6206;DHT22;3136;48.788;9.772;2023-11-19T12:08:18;16.70;99.90
6206;DHT22;3136;48.788;9.772;2023-11-19T12:10:48;16.60;1.00
6206;DHT22;3136;48.788;9.772;2023-11-19T12:13:14;16.70;99.90
6206;DHT22;3136;48.788;9.772;2023-11-19T12:18:24;16.80;1.00
6206;DHT22;3136;48.788;9.772;2023-11-19T12:20:50;16.60;1.00
6206;DHT22;3136;48.788;9.772;2023-11-19T12:23:16;16.10;99.90
6206;DHT22;3136;48.788;9.772;2023-11-19T12:25:41;15.80;99.90
6206;DHT22;3136;48.788;9.772;2023-11-19T12:28:12;15.60;99.90
6206;DHT22;3136;48.788;9.772;2023-11-19T12:30:38;15.40;1.00
6206;DHT22;3136;48.788;9.772;2023-11-19T12:33:08;15.40;1.00
6206;DHT22;3136;48.788;9.772;2023-11-19T12:35:42;15.90;1.00
6206;DHT22;3136;48.788;9.772;2023-11-19T12:38:18;16.30;1.00
6206;DHT22;3136;48.788;9.772;2023-11-19T12:40:43;16.60;1.00
6206;DHT22;3136;48.788;9.772;2023-11-19T12:43:09;17.60;99.90
6206;DHT22;3136;48.788;9.772;2023-11-19T12:45:35;19.00;1.00
6206;DHT22;3136;48.788;9.772;2023-11-19T12:48:08;20.30;99.90
6206;DHT22;3136;48.788;9.772;2023-11-19T12:51:07;21.30;99.90
6206;DHT22;3136;48.788;9.772;2023-11-19T12:53:52;21.80;99.90
6206;DHT22;3136;48.788;9.772;2023-11-19T12:56:23;22.50;99.90
6206;DHT22;3136;48.788;9.772;2023-11-19T12:58:50;23.10;99.90
6206;DHT22;3136;48.788;9.772;2023-11-19T13:01:19;23.40;99.90
6206;DHT22;3136;48.788;9.772;2023-11-19T13:03:46;23.50;99.90
6206;DHT22;3136;48.788;9.772;2023-11-19T13:06:13;23.90;97.60
6206;DHT22;3136;48.788;9.772;2023-11-19T13:08:46;24.10;93.30
6206;DHT22;3136;48.788;9.772;2023-11-19T13:11:13;23.60;91.50
6206;DHT22;3136;48.788;9.772;2023-11-19T13:13:59;22.60;92.00
6206;DHT22;3136;48.788;9.772;2023-11-19T13:16:26;21.40;99.90
6206;DHT22;3136;48.788;9.772;2023-11-19T13:18:52;21.00;99.90
6206;DHT22;3136;48.788;9.772;2023-11-19T13:21:18;21.10;99.90
6206;DHT22;3136;48.788;9.772;2023-11-19T13:23:43;21.60;96.30
6206;DHT22;3136;48.788;9.772;2023-11-19T13:26:10;22.10;93.00
6206;DHT22;3136;48.788;9.772;2023-11-19T13:28:36;21.90;91.80
6206;DHT22;3136;48.788;9.772;2023-11-19T13:31:02;20.80;99.70
6206;DHT22;3136;48.788;9.772;2023-11-19T13:33:28;19.60;99.90
6206;DHT22;3136;48.788;9.772;2023-11-19T13:35:55;18.50;99.90
6206;DHT22;3136;48.788;9.772;2023-11-19T13:38:20;17.70;99.90
6206;DHT22;3136;48.788;9.772;2023-11-19T13:40:46;17.10;99.90
6206;DHT22;3136;48.788;9.772;2023-11-19T13:43:11;16.60;99.90
6206;DHT22;3136;48.788;9.772;2023-11-19T13:45:37;16.40;1.00
6206;DHT22;3136;48.788;9.772;2023-11-19T13:48:03;16.10;1.00
6206;DHT22;3136;48.788;9.772;2023-11-19T13:50:28;15.90;1.00
6206;DHT22;3136;48.788;9.772;2023-11-19T13:52:54;15.70;1.00
6206;DHT22;3136;48.788;9.772;2023-11-19T13:55:20;15.70;1.00
6206;DHT22;3136;48.788;9.772;2023-11-19T13:57:47;15.60;1.00
6206;DHT22;3136;48.788;9.772;2023-11-19T14:00:14;15.50;1.00
6206;DHT22;3136;48.788;9.772;2023-11-19T14:02:45;15.40;1.00
6206;DHT22;3136;48.788;9.772;2023-11-19T14:05:12;15.30;43.20
6206;DHT22;3136;48.788;9.772;2023-11-19T14:07:38;15.20;99.90
6206;DHT22;3136;48.788;9.772;2023-11-19T14:10:04;15.20;1.00
6206;DHT22;3136;48.788;9.772;2023-11-19T14:12:35;15.20;1.00
6206;DHT22;3136;48.788;9.772;2023-11-19T14:15:04;15.20;1.00
6206;DHT22;3136;48.788;9.772;2023-11-19T14:17:32;15.10;1.00
6206;DHT22;3136;48.788;9.772;2023-11-19T14:19:58;15.10;1.00
6206;DHT22;3136;48.788;9.772;2023-11-19T14:22:23;15.20;1.00
6206;DHT22;3136;48.788;9.772;2023-11-19T14:24:50;15.30;1.00
6206;DHT22;3136;48.788;9.772;2023-11-19T14:27:15;15.20;1.00
6206;DHT22;3136;48.788;9.772;2023-11-19T14:29:43;15.20;1.00
6206;DHT22;3136;48.788;9.772;2023-11-19T14:32:10;15.20;1.00
6206;DHT22;3136;48.788;9.772;2023-11-19T14:34:36;15.10;59.50
6206;DHT22;3136;48.788;9.772;2023-11-19T14:37:01;15.00;34.90
6206;DHT22;3136;48.788;9.772;2023-11-19T14:39:27;14.70;99.90
6206;DHT22;3136;48.788;9.772;2023-11-19T14:41:54;14.70;13.60
6206;DHT22;3136;48.788;9.772;2023-11-19T14:44:23;14.50;1.00
6206;DHT22;3136;48.788;9.772;2023-11-19T14:46:49;14.50;1.00
6206;DHT22;3136;48.788;9.772;2023-11-19T14:49:15;14.40;1.00
6206;DHT22;3136;48.788;9.772;2023-11-19T14:51:40;14.30;1.00
6206;DHT22;3136;48.788;9.772;2023-11-19T14:54:06;14.20;1.00
6206;DHT22;3136;48.788;9.772;2023-11-19T14:56:32;14.10;1.00
6206;DHT22;3136;48.788;9.772;2023-11-19T14:58:58;14.00;82.20
6206;DHT22;3136;48.788;9.772;2023-11-19T15:01:26;13.90;99.90
6206;DHT22;3136;48.788;9.772;2023-11-19T15:03:54;13.80;10.60
6206;DHT22;3136;48.788;9.772;2023-11-19T15:06:23;13.80;99.90
6206;DHT22;3136;48.788;9.772;2023-11-19T15:08:50;13.70;99.90
6206;DHT22;3136;48.788;9.772;2023-11-19T15:11:15;13.60;99.90
6206;DHT22;3136;48.788;9.772;2023-11-19T15:13:41;13.50;99.90
6206;DHT22;3136;48.788;9.772;2023-11-19T15:16:07;13.40;99.90
6206;DHT22;3136;48.788;9.772;2023-11-19T15:18:36;13.30;1.00
6206;DHT22;3136;48.788;9.772;2023-11-19T15:21:01;13.20;1.00
6206;DHT22;3136;48.788;9.772;2023-11-19T15:23:27;13.20;1.00
6206;DHT22;3136;48.788;9.772;2023-11-19T15:25:54;13.20;1.00
6206;DHT22;3136;48.788;9.772;2023-11-19T15:28:21;13.10;1.00
6206;DHT22;3136;48.788;9.772;2023-11-19T15:30:47;13.10;1.00
6206;DHT22;3136;48.788;9.772;2023-11-19T15:33:12;12.90;1.00
6206;DHT22;3136;48.788;9.772;2023-11-19T15:35:38;12.80;1.00
6206;DHT22;3136;48.788;9.772;2023-11-19T15:38:04;12.70;99.90
6206;DHT22;3136;48.788;9.772;2023-11-19T15:40:30;12.70;96.50
6206;DHT22;3136;48.788;9.772;2023-11-19T15:42:56;12.70;99.90
6206;DHT22;3136;48.788;9.772;2023-11-19T15:45:23;12.60;99.90
6206;DHT22;3136;48.788;9.772;2023-11-19T15:47:49;12.60;99.90
6206;DHT22;3136;48.788;9.772;2023-11-19T15:50:15;12.60;99.90
6206;DHT22;3136;48.788;9.772;2023-11-19T15:52:40;12.70;99.90
6206;DHT22;3136;48.788;9.772;2023-11-19T15:55:09;12.70;1.00
6206;DHT22;3136;48.788;9.772;2023-11-19T15:57:37;12.80;1.00
6206;DHT22;3136;48.788;9.772;2023-11-19T16:00:03;14.80;1.00
6206;DHT22;3136;48.788;9.772;2023-11-19T16:02:29;12.90;99.90
6206;DHT22;3136;48.788;9.772;2023-11-19T16:04:55;13.00;99.90
6206;DHT22;3136;48.788;9.772;2023-11-19T16:07:20;13.00;99.90
6206;DHT22;3136;48.788;9.772;2023-11-19T16:09:46;13.00;99.90
6206;DHT22;3136;48.788;9.772;2023-11-19T16:12:13;13.00;99.90
6206;DHT22;3136;48.788;9.772;2023-11-19T16:14:38;12.90;99.90
6206;DHT22;3136;48.788;9.772;2023-11-19T16:17:04;12.90;23.60
6206;DHT22;3136;48.788;9.772;2023-11-19T16:19:31;14.70;79.60
6206;DHT22;3136;48.788;9.772;2023-11-19T16:21:57;12.80;70.90
6206;DHT22;3136;48.788;9.772;2023-11-19T16:24:22;12.70;99.90
6206;DHT22;3136;48.788;9.772;2023-11-19T16:26:48;12.70;99.90
6206;DHT22;3136;48.788;9.772;2023-11-19T16:29:13;12.60;99.90
6206;DHT22;3136;48.788;9.772;2023-11-19T16:31:39;12.60;99.90
6206;DHT22;3136;48.788;9.772;2023-11-19T16:34:08;12.50;99.90
6206;DHT22;3136;48.788;9.772;2023-11-19T16:36:34;12.50;99.90
6206;DHT22;3136;48.788;9.772;2023-11-19T16:39:00;12.40;99.90